ドバイ の空港の天気 - METARとTAF

ドバイ国際空港 ( OMDB / DXB ) - アラブ首長国連邦 ドバイ
飛行場実況気象(Metar)
観測時間05/28 14:00 GST (05/28 10:00 UTC)
風向・風速北西 5m/s
視程10km以上
天気現象
なし
気温37℃
湿度31%
気圧1001hPa
METAROMDB 281000Z 31009KT 270V330 CAVOK 37/17 Q1001 NOSIG
過去の天気等 Google飛行場航空写真 Wunderground天気予報

過去48時間のMETAR

飛行場予報(TAF)
発表時間: 5/28 09:00 GST (5/28 05:00 UTC)
予報対象時間: 28日10時 GST ~ 29日16時 GST
風向・風速南西 4m/s
視程10km以上
なし
28日10時 GST ~ 28日12時 GST に徐々に
風向・風速西北西 7m/s
28日20時 GST ~ 28日22時 GST に徐々に
風向・風速南 3m/s
29日12時 GST ~ 29日14時 GST に徐々に
風向・風速西北西 6m/s
TAF OMDB 280500Z 2806/2912 23008KT CAVOK
BECMG 2806/2808 29013KT
BECMG 2816/2818 18005KT
BECMG 2908/2910 30012KT